sensor_id;sensor_type;location;lat;lon;timestamp;P1;durP1;ratioP1;P2;durP2;ratioP2
5945;SDS011;2998;48.206;16.394;2023-01-19T00:01:06;5.43;;;5.00;;
5945;SDS011;2998;48.206;16.394;2023-01-19T00:03:36;6.70;;;6.20;;
5945;SDS011;2998;48.206;16.394;2023-01-19T00:06:04;6.40;;;5.80;;
5945;SDS011;2998;48.206;16.394;2023-01-19T00:08:33;5.57;;;5.17;;
5945;SDS011;2998;48.206;16.394;2023-01-19T00:11:02;6.67;;;5.43;;
5945;SDS011;2998;48.206;16.394;2023-01-19T00:13:31;6.37;;;5.80;;
5945;SDS011;2998;48.206;16.394;2023-01-19T00:15:59;5.60;;;5.20;;
5945;SDS011;2998;48.206;16.394;2023-01-19T00:18:27;5.80;;;5.47;;
5945;SDS011;2998;48.206;16.394;2023-01-19T00:20:55;6.03;;;5.53;;
5945;SDS011;2998;48.206;16.394;2023-01-19T00:23:23;5.97;;;5.47;;
5945;SDS011;2998;48.206;16.394;2023-01-19T00:25:51;6.43;;;5.83;;
5945;SDS011;2998;48.206;16.394;2023-01-19T00:28:19;6.57;;;5.77;;
5945;SDS011;2998;48.206;16.394;2023-01-19T00:30:49;6.20;;;5.70;;
5945;SDS011;2998;48.206;16.394;2023-01-19T00:33:17;7.50;;;6.80;;
5945;SDS011;2998;48.206;16.394;2023-01-19T00:35:49;6.67;;;6.07;;
5945;SDS011;2998;48.206;16.394;2023-01-19T00:38:17;6.50;;;6.00;;
5945;SDS011;2998;48.206;16.394;2023-01-19T00:40:45;6.20;;;5.70;;
5945;SDS011;2998;48.206;16.394;2023-01-19T00:43:15;8.30;;;6.23;;
5945;SDS011;2998;48.206;16.394;2023-01-19T00:45:43;7.50;;;6.90;;
5945;SDS011;2998;48.206;16.394;2023-01-19T00:48:13;6.37;;;5.97;;
5945;SDS011;2998;48.206;16.394;2023-01-19T00:50:40;6.97;;;6.37;;
5945;SDS011;2998;48.206;16.394;2023-01-19T00:53:08;6.73;;;6.23;;
5945;SDS011;2998;48.206;16.394;2023-01-19T00:55:36;6.70;;;5.97;;
5945;SDS011;2998;48.206;16.394;2023-01-19T00:58:04;7.43;;;6.63;;
5945;SDS011;2998;48.206;16.394;2023-01-19T01:00:32;6.47;;;5.90;;
5945;SDS011;2998;48.206;16.394;2023-01-19T01:03:00;6.50;;;6.00;;
5945;SDS011;2998;48.206;16.394;2023-01-19T01:05:30;6.20;;;5.80;;
5945;SDS011;2998;48.206;16.394;2023-01-19T01:07:58;8.90;;;6.00;;
5945;SDS011;2998;48.206;16.394;2023-01-19T01:10:27;7.43;;;6.70;;
5945;SDS011;2998;48.206;16.394;2023-01-19T01:12:55;7.40;;;6.83;;
5945;SDS011;2998;48.206;16.394;2023-01-19T01:15:25;7.33;;;6.67;;
5945;SDS011;2998;48.206;16.394;2023-01-19T01:17:53;6.33;;;5.83;;
5945;SDS011;2998;48.206;16.394;2023-01-19T01:20:23;5.70;;;5.30;;
5945;SDS011;2998;48.206;16.394;2023-01-19T01:22:55;6.20;;;5.70;;
5945;SDS011;2998;48.206;16.394;2023-01-19T01:25:25;6.30;;;5.93;;
5945;SDS011;2998;48.206;16.394;2023-01-19T01:27:54;7.43;;;6.83;;
5945;SDS011;2998;48.206;16.394;2023-01-19T01:30:29;7.83;;;7.03;;
5945;SDS011;2998;48.206;16.394;2023-01-19T01:32:57;8.30;;;6.80;;
5945;SDS011;2998;48.206;16.394;2023-01-19T01:35:25;7.70;;;6.90;;
5945;SDS011;2998;48.206;16.394;2023-01-19T01:37:57;7.30;;;6.70;;
5945;SDS011;2998;48.206;16.394;2023-01-19T01:40:26;7.37;;;6.63;;
5945;SDS011;2998;48.206;16.394;2023-01-19T01:42:54;6.70;;;6.10;;
5945;SDS011;2998;48.206;16.394;2023-01-19T01:45:27;6.57;;;6.03;;
5945;SDS011;2998;48.206;16.394;2023-01-19T01:47:57;7.07;;;6.47;;
5945;SDS011;2998;48.206;16.394;2023-01-19T01:50:29;7.23;;;6.60;;
5945;SDS011;2998;48.206;16.394;2023-01-19T01:53:01;6.70;;;6.20;;
5945;SDS011;2998;48.206;16.394;2023-01-19T01:55:33;7.17;;;6.57;;
5945;SDS011;2998;48.206;16.394;2023-01-19T01:58:04;6.90;;;6.40;;
5945;SDS011;2998;48.206;16.394;2023-01-19T02:00:32;7.53;;;6.80;;
5945;SDS011;2998;48.206;16.394;2023-01-19T02:03:14;6.60;;;6.00;;
5945;SDS011;2998;48.206;16.394;2023-01-19T02:05:42;7.40;;;6.20;;
5945;SDS011;2998;48.206;16.394;2023-01-19T02:08:13;7.53;;;6.90;;
5945;SDS011;2998;48.206;16.394;2023-01-19T02:11:00;6.70;;;6.17;;
5945;SDS011;2998;48.206;16.394;2023-01-19T02:13:47;6.87;;;6.33;;
5945;SDS011;2998;48.206;16.394;2023-01-19T02:16:15;6.77;;;6.17;;
5945;SDS011;2998;48.206;16.394;2023-01-19T02:18:43;6.07;;;5.67;;
5945;SDS011;2998;48.206;16.394;2023-01-19T02:21:13;6.70;;;6.10;;
5945;SDS011;2998;48.206;16.394;2023-01-19T02:23:46;5.73;;;5.43;;
5945;SDS011;2998;48.206;16.394;2023-01-19T02:26:16;6.73;;;6.03;;
5945;SDS011;2998;48.206;16.394;2023-01-19T02:28:46;7.60;;;6.90;;
5945;SDS011;2998;48.206;16.394;2023-01-19T02:31:18;6.87;;;6.07;;
5945;SDS011;2998;48.206;16.394;2023-01-19T02:33:46;8.50;;;6.20;;
5945;SDS011;2998;48.206;16.394;2023-01-19T02:36:14;6.27;;;5.77;;
5945;SDS011;2998;48.206;16.394;2023-01-19T02:38:44;6.33;;;5.83;;
5945;SDS011;2998;48.206;16.394;2023-01-19T02:41:15;7.80;;;6.87;;
5945;SDS011;2998;48.206;16.394;2023-01-19T02:43:47;6.67;;;6.17;;
5945;SDS011;2998;48.206;16.394;2023-01-19T02:46:15;5.90;;;5.40;;
5945;SDS011;2998;48.206;16.394;2023-01-19T02:48:43;6.87;;;6.23;;
5945;SDS011;2998;48.206;16.394;2023-01-19T02:51:25;6.97;;;6.13;;
5945;SDS011;2998;48.206;16.394;2023-01-19T02:54:04;6.60;;;6.00;;
5945;SDS011;2998;48.206;16.394;2023-01-19T02:56:50;7.50;;;6.90;;
5945;SDS011;2998;48.206;16.394;2023-01-19T02:59:25;7.20;;;6.50;;
5945;SDS011;2998;48.206;16.394;2023-01-19T03:02:00;7.30;;;6.70;;
5945;SDS011;2998;48.206;16.394;2023-01-19T03:04:39;13.17;;;7.03;;
5945;SDS011;2998;48.206;16.394;2023-01-19T03:07:15;7.67;;;6.37;;
5945;SDS011;2998;48.206;16.394;2023-01-19T03:09:50;6.60;;;6.00;;
5945;SDS011;2998;48.206;16.394;2023-01-19T03:12:22;7.73;;;7.03;;
5945;SDS011;2998;48.206;16.394;2023-01-19T03:14:55;7.47;;;6.70;;
5945;SDS011;2998;48.206;16.394;2023-01-19T03:17:24;7.77;;;7.17;;
5945;SDS011;2998;48.206;16.394;2023-01-19T03:19:53;7.43;;;6.73;;
5945;SDS011;2998;48.206;16.394;2023-01-19T03:22:26;8.30;;;7.50;;
5945;SDS011;2998;48.206;16.394;2023-01-19T03:24:59;20.40;;;7.13;;
5945;SDS011;2998;48.206;16.394;2023-01-19T03:27:28;8.90;;;8.10;;
5945;SDS011;2998;48.206;16.394;2023-01-19T03:29:58;11.03;;;7.73;;
5945;SDS011;2998;48.206;16.394;2023-01-19T03:32:28;19.60;;;8.93;;
5945;SDS011;2998;48.206;16.394;2023-01-19T03:35:01;50.17;;;11.93;;
5945;SDS011;2998;48.206;16.394;2023-01-19T03:37:31;15.20;;;8.27;;
5945;SDS011;2998;48.206;16.394;2023-01-19T03:40:04;7.90;;;7.10;;
5945;SDS011;2998;48.206;16.394;2023-01-19T03:42:32;7.93;;;7.20;;
5945;SDS011;2998;48.206;16.394;2023-01-19T03:45:02;7.87;;;7.23;;
5945;SDS011;2998;48.206;16.394;2023-01-19T03:47:30;8.70;;;7.60;;
5945;SDS011;2998;48.206;16.394;2023-01-19T03:49:58;8.97;;;7.07;;
5945;SDS011;2998;48.206;16.394;2023-01-19T03:52:29;8.67;;;7.63;;
5945;SDS011;2998;48.206;16.394;2023-01-19T03:54:59;7.90;;;7.20;;
5945;SDS011;2998;48.206;16.394;2023-01-19T03:57:28;7.80;;;7.10;;
5945;SDS011;2998;48.206;16.394;2023-01-19T03:59:56;8.73;;;7.83;;
5945;SDS011;2998;48.206;16.394;2023-01-19T04:02:32;8.90;;;8.00;;
5945;SDS011;2998;48.206;16.394;2023-01-19T04:05:00;9.13;;;8.10;;
5945;SDS011;2998;48.206;16.394;2023-01-19T04:07:27;8.43;;;7.60;;
5945;SDS011;2998;48.206;16.394;2023-01-19T04:09:58;8.50;;;7.60;;
5945;SDS011;2998;48.206;16.394;2023-01-19T04:12:26;8.70;;;7.90;;
5945;SDS011;2998;48.206;16.394;2023-01-19T04:14:57;9.23;;;8.33;;
5945;SDS011;2998;48.206;16.394;2023-01-19T04:17:25;10.00;;;8.10;;
5945;SDS011;2998;48.206;16.394;2023-01-19T04:19:55;10.70;;;8.70;;
5945;SDS011;2998;48.206;16.394;2023-01-19T04:22:23;9.67;;;8.67;;
5945;SDS011;2998;48.206;16.394;2023-01-19T04:24:54;9.97;;;8.97;;
5945;SDS011;2998;48.206;16.394;2023-01-19T04:27:22;14.73;;;10.60;;
5945;SDS011;2998;48.206;16.394;2023-01-19T04:29:51;19.53;;;10.10;;
5945;SDS011;2998;48.206;16.394;2023-01-19T04:32:20;10.83;;;9.30;;
5945;SDS011;2998;48.206;16.394;2023-01-19T04:34:51;10.53;;;9.43;;
5945;SDS011;2998;48.206;16.394;2023-01-19T04:37:19;10.77;;;9.27;;
5945;SDS011;2998;48.206;16.394;2023-01-19T04:39:46;10.47;;;9.37;;
5945;SDS011;2998;48.206;16.394;2023-01-19T04:42:20;10.90;;;9.83;;
5945;SDS011;2998;48.206;16.394;2023-01-19T04:44:51;11.43;;;10.30;;
5945;SDS011;2998;48.206;16.394;2023-01-19T04:47:20;11.20;;;10.00;;
5945;SDS011;2998;48.206;16.394;2023-01-19T04:49:48;12.20;;;10.37;;
5945;SDS011;2998;48.206;16.394;2023-01-19T04:52:18;12.30;;;11.00;;
5945;SDS011;2998;48.206;16.394;2023-01-19T04:54:46;12.60;;;10.43;;
5945;SDS011;2998;48.206;16.394;2023-01-19T04:57:14;12.03;;;10.80;;
5945;SDS011;2998;48.206;16.394;2023-01-19T04:59:52;12.63;;;11.17;;
5945;SDS011;2998;48.206;16.394;2023-01-19T05:02:22;12.43;;;11.13;;
5945;SDS011;2998;48.206;16.394;2023-01-19T05:04:50;16.83;;;12.53;;
5945;SDS011;2998;48.206;16.394;2023-01-19T05:07:20;14.63;;;11.50;;
5945;SDS011;2998;48.206;16.394;2023-01-19T05:09:50;12.53;;;11.33;;
5945;SDS011;2998;48.206;16.394;2023-01-19T05:12:19;17.33;;;11.90;;
5945;SDS011;2998;48.206;16.394;2023-01-19T05:14:47;15.70;;;13.60;;
5945;SDS011;2998;48.206;16.394;2023-01-19T05:17:15;15.30;;;13.20;;
5945;SDS011;2998;48.206;16.394;2023-01-19T05:19:44;15.00;;;12.73;;
5945;SDS011;2998;48.206;16.394;2023-01-19T05:22:15;15.10;;;13.50;;
5945;SDS011;2998;48.206;16.394;2023-01-19T05:24:43;16.03;;;13.03;;
5945;SDS011;2998;48.206;16.394;2023-01-19T05:27:11;14.57;;;12.57;;
5945;SDS011;2998;48.206;16.394;2023-01-19T05:29:41;14.80;;;13.20;;
5945;SDS011;2998;48.206;16.394;2023-01-19T05:32:09;20.57;;;13.10;;
5945;SDS011;2998;48.206;16.394;2023-01-19T05:34:39;18.70;;;13.60;;
5945;SDS011;2998;48.206;16.394;2023-01-19T05:37:08;16.33;;;13.27;;
5945;SDS011;2998;48.206;16.394;2023-01-19T05:39:36;17.17;;;13.73;;
5945;SDS011;2998;48.206;16.394;2023-01-19T05:42:04;16.17;;;13.03;;
5945;SDS011;2998;48.206;16.394;2023-01-19T05:44:32;15.17;;;13.10;;
5945;SDS011;2998;48.206;16.394;2023-01-19T05:47:00;15.37;;;13.20;;
5945;SDS011;2998;48.206;16.394;2023-01-19T05:49:28;23.03;;;14.20;;
5945;SDS011;2998;48.206;16.394;2023-01-19T05:51:59;13.47;;;12.03;;
5945;SDS011;2998;48.206;16.394;2023-01-19T05:54:30;14.30;;;12.00;;
5945;SDS011;2998;48.206;16.394;2023-01-19T05:56:58;17.30;;;13.80;;
5945;SDS011;2998;48.206;16.394;2023-01-19T05:59:26;26.20;;;13.43;;
5945;SDS011;2998;48.206;16.394;2023-01-19T06:01:54;16.50;;;12.90;;
5945;SDS011;2998;48.206;16.394;2023-01-19T06:04:22;15.13;;;12.70;;
5945;SDS011;2998;48.206;16.394;2023-01-19T06:06:50;15.40;;;13.43;;
5945;SDS011;2998;48.206;16.394;2023-01-19T06:09:18;17.83;;;13.30;;
5945;SDS011;2998;48.206;16.394;2023-01-19T06:11:50;13.20;;;11.73;;
5945;SDS011;2998;48.206;16.394;2023-01-19T06:14:24;14.07;;;12.17;;
5945;SDS011;2998;48.206;16.394;2023-01-19T06:16:52;16.67;;;12.37;;
5945;SDS011;2998;48.206;16.394;2023-01-19T06:19:20;15.90;;;12.70;;
5945;SDS011;2998;48.206;16.394;2023-01-19T06:21:50;15.47;;;13.10;;
5945;SDS011;2998;48.206;16.394;2023-01-19T06:24:18;14.13;;;12.60;;
5945;SDS011;2998;48.206;16.394;2023-01-19T06:26:46;20.43;;;12.17;;
5945;SDS011;2998;48.206;16.394;2023-01-19T06:29:15;12.37;;;11.10;;
5945;SDS011;2998;48.206;16.394;2023-01-19T06:31:46;17.47;;;13.17;;
5945;SDS011;2998;48.206;16.394;2023-01-19T06:34:14;15.13;;;12.87;;
5945;SDS011;2998;48.206;16.394;2023-01-19T06:36:48;17.43;;;13.43;;
5945;SDS011;2998;48.206;16.394;2023-01-19T06:39:16;15.40;;;12.80;;
5945;SDS011;2998;48.206;16.394;2023-01-19T06:41:46;12.70;;;11.40;;
5945;SDS011;2998;48.206;16.394;2023-01-19T06:44:16;13.77;;;12.13;;
5945;SDS011;2998;48.206;16.394;2023-01-19T06:46:44;15.20;;;11.40;;
5945;SDS011;2998;48.206;16.394;2023-01-19T06:49:14;14.70;;;12.70;;
5945;SDS011;2998;48.206;16.394;2023-01-19T06:51:42;11.90;;;10.73;;
5945;SDS011;2998;48.206;16.394;2023-01-19T06:54:12;14.90;;;12.10;;
5945;SDS011;2998;48.206;16.394;2023-01-19T06:56:40;14.03;;;11.83;;
5945;SDS011;2998;48.206;16.394;2023-01-19T06:59:08;13.27;;;11.20;;
5945;SDS011;2998;48.206;16.394;2023-01-19T07:01:37;16.60;;;11.73;;
5945;SDS011;2998;48.206;16.394;2023-01-19T07:04:05;11.33;;;10.07;;
5945;SDS011;2998;48.206;16.394;2023-01-19T07:06:33;11.10;;;10.00;;
5945;SDS011;2998;48.206;16.394;2023-01-19T07:09:03;12.20;;;11.00;;
5945;SDS011;2998;48.206;16.394;2023-01-19T07:11:35;11.30;;;10.20;;
5945;SDS011;2998;48.206;16.394;2023-01-19T07:14:03;10.30;;;9.23;;
5945;SDS011;2998;48.206;16.394;2023-01-19T07:16:31;11.87;;;10.00;;
5945;SDS011;2998;48.206;16.394;2023-01-19T07:19:00;11.63;;;10.53;;
5945;SDS011;2998;48.206;16.394;2023-01-19T07:21:28;16.23;;;12.10;;
5945;SDS011;2998;48.206;16.394;2023-01-19T07:23:56;11.60;;;10.30;;
5945;SDS011;2998;48.206;16.394;2023-01-19T07:26:24;12.90;;;10.87;;
5945;SDS011;2998;48.206;16.394;2023-01-19T07:28:53;6.27;;;5.77;;
5945;SDS011;2998;48.206;16.394;2023-01-19T07:31:21;6.50;;;5.90;;
5945;SDS011;2998;48.206;16.394;2023-01-19T07:33:49;4.77;;;4.40;;
5945;SDS011;2998;48.206;16.394;2023-01-19T07:36:20;4.17;;;3.80;;
5945;SDS011;2998;48.206;16.394;2023-01-19T07:38:48;3.63;;;3.43;;
5945;SDS011;2998;48.206;16.394;2023-01-19T07:41:16;10.70;;;3.90;;
5945;SDS011;2998;48.206;16.394;2023-01-19T07:43:44;4.10;;;3.80;;
5945;SDS011;2998;48.206;16.394;2023-01-19T07:46:12;10.83;;;5.23;;
5945;SDS011;2998;48.206;16.394;2023-01-19T07:48:40;8.33;;;3.83;;
5945;SDS011;2998;48.206;16.394;2023-01-19T07:51:09;4.30;;;4.00;;
5945;SDS011;2998;48.206;16.394;2023-01-19T07:53:48;3.80;;;3.50;;
5945;SDS011;2998;48.206;16.394;2023-01-19T07:56:16;4.40;;;4.10;;
5945;SDS011;2998;48.206;16.394;2023-01-19T07:58:44;6.57;;;4.30;;
5945;SDS011;2998;48.206;16.394;2023-01-19T08:01:12;3.63;;;3.43;;
5945;SDS011;2998;48.206;16.394;2023-01-19T08:03:40;4.27;;;3.97;;
5945;SDS011;2998;48.206;16.394;2023-01-19T08:06:09;3.83;;;3.60;;
5945;SDS011;2998;48.206;16.394;2023-01-19T08:08:46;3.17;;;3.00;;
5945;SDS011;2998;48.206;16.394;2023-01-19T08:11:14;13.73;;;6.70;;
5945;SDS011;2998;48.206;16.394;2023-01-19T08:13:42;4.63;;;4.33;;
5945;SDS011;2998;48.206;16.394;2023-01-19T08:16:10;3.83;;;3.10;;
5945;SDS011;2998;48.206;16.394;2023-01-19T08:18:56;3.87;;;3.57;;
5945;SDS011;2998;48.206;16.394;2023-01-19T08:21:43;3.17;;;2.97;;
5945;SDS011;2998;48.206;16.394;2023-01-19T08:24:31;3.40;;;3.20;;
5945;SDS011;2998;48.206;16.394;2023-01-19T08:27:18;3.33;;;3.13;;
5945;SDS011;2998;48.206;16.394;2023-01-19T08:30:06;4.23;;;3.83;;
5945;SDS011;2998;48.206;16.394;2023-01-19T08:32:53;3.87;;;3.57;;
5945;SDS011;2998;48.206;16.394;2023-01-19T08:35:48;3.40;;;3.20;;
5945;SDS011;2998;48.206;16.394;2023-01-19T08:38:38;2.60;;;2.40;;
5945;SDS011;2998;48.206;16.394;2023-01-19T08:41:29;6.60;;;3.37;;
5945;SDS011;2998;48.206;16.394;2023-01-19T08:44:16;14.27;;;3.40;;
5945;SDS011;2998;48.206;16.394;2023-01-19T08:47:03;8.73;;;3.17;;
5945;SDS011;2998;48.206;16.394;2023-01-19T08:49:50;8.00;;;4.03;;
5945;SDS011;2998;48.206;16.394;2023-01-19T08:52:18;5.97;;;3.20;;
5945;SDS011;2998;48.206;16.394;2023-01-19T08:54:49;4.60;;;2.80;;
5945;SDS011;2998;48.206;16.394;2023-01-19T08:57:18;2.97;;;2.83;;
5945;SDS011;2998;48.206;16.394;2023-01-19T08:59:46;9.57;;;4.30;;
5945;SDS011;2998;48.206;16.394;2023-01-19T09:02:34;3.40;;;3.10;;
5945;SDS011;2998;48.206;16.394;2023-01-19T09:05:24;3.03;;;2.83;;
5945;SDS011;2998;48.206;16.394;2023-01-19T09:07:52;3.40;;;2.17;;
5945;SDS011;2998;48.206;16.394;2023-01-19T09:10:20;26.53;;;5.80;;
5945;SDS011;2998;48.206;16.394;2023-01-19T09:12:57;3.17;;;2.97;;
5945;SDS011;2998;48.206;16.394;2023-01-19T09:15:28;2.50;;;2.40;;
5945;SDS011;2998;48.206;16.394;2023-01-19T09:17:56;2.80;;;2.60;;
5945;SDS011;2998;48.206;16.394;2023-01-19T09:20:25;3.30;;;2.50;;
5945;SDS011;2998;48.206;16.394;2023-01-19T09:22:56;12.30;;;4.77;;
5945;SDS011;2998;48.206;16.394;2023-01-19T09:25:24;2.80;;;2.70;;
5945;SDS011;2998;48.206;16.394;2023-01-19T09:27:52;2.00;;;1.90;;
5945;SDS011;2998;48.206;16.394;2023-01-19T09:30:26;2.67;;;2.50;;
5945;SDS011;2998;48.206;16.394;2023-01-19T09:32:54;3.07;;;2.87;;
5945;SDS011;2998;48.206;16.394;2023-01-19T09:35:24;2.30;;;2.20;;
5945;SDS011;2998;48.206;16.394;2023-01-19T09:37:52;2.97;;;2.87;;
5945;SDS011;2998;48.206;16.394;2023-01-19T09:40:20;4.20;;;2.23;;
5945;SDS011;2998;48.206;16.394;2023-01-19T09:42:49;3.70;;;3.40;;
5945;SDS011;2998;48.206;16.394;2023-01-19T09:45:25;10.03;;;3.00;;
5945;SDS011;2998;48.206;16.394;2023-01-19T09:47:56;7.50;;;2.90;;
5945;SDS011;2998;48.206;16.394;2023-01-19T09:50:26;2.70;;;2.60;;
5945;SDS011;2998;48.206;16.394;2023-01-19T09:52:56;9.77;;;3.17;;
5945;SDS011;2998;48.206;16.394;2023-01-19T09:55:27;9.00;;;3.27;;
5945;SDS011;2998;48.206;16.394;2023-01-19T09:57:56;4.53;;;2.90;;
5945;SDS011;2998;48.206;16.394;2023-01-19T10:00:28;4.70;;;3.10;;
5945;SDS011;2998;48.206;16.394;2023-01-19T10:02:58;1.93;;;1.83;;
5945;SDS011;2998;48.206;16.394;2023-01-19T10:05:32;2.83;;;2.63;;
5945;SDS011;2998;48.206;16.394;2023-01-19T10:08:08;4.40;;;3.53;;
5945;SDS011;2998;48.206;16.394;2023-01-19T10:10:45;2.33;;;2.23;;
5945;SDS011;2998;48.206;16.394;2023-01-19T10:13:20;8.40;;;2.30;;
5945;SDS011;2998;48.206;16.394;2023-01-19T10:15:58;3.50;;;3.20;;
5945;SDS011;2998;48.206;16.394;2023-01-19T10:18:35;4.20;;;3.00;;
5945;SDS011;2998;48.206;16.394;2023-01-19T10:21:14;12.70;;;7.97;;
5945;SDS011;2998;48.206;16.394;2023-01-19T10:23:49;9.70;;;6.40;;
5945;SDS011;2998;48.206;16.394;2023-01-19T10:26:21;8.97;;;6.00;;
5945;SDS011;2998;48.206;16.394;2023-01-19T10:28:53;5.23;;;4.77;;
5945;SDS011;2998;48.206;16.394;2023-01-19T10:31:25;7.40;;;6.00;;
5945;SDS011;2998;48.206;16.394;2023-01-19T10:33:53;5.67;;;3.77;;
5945;SDS011;2998;48.206;16.394;2023-01-19T10:36:23;4.87;;;3.67;;
5945;SDS011;2998;48.206;16.394;2023-01-19T10:38:54;5.07;;;4.63;;
5945;SDS011;2998;48.206;16.394;2023-01-19T10:41:23;4.10;;;3.37;;
5945;SDS011;2998;48.206;16.394;2023-01-19T10:43:57;5.07;;;4.53;;
5945;SDS011;2998;48.206;16.394;2023-01-19T10:46:30;10.03;;;6.20;;
5945;SDS011;2998;48.206;16.394;2023-01-19T10:49:01;17.30;;;8.57;;
5945;SDS011;2998;48.206;16.394;2023-01-19T10:51:32;7.77;;;5.87;;
5945;SDS011;2998;48.206;16.394;2023-01-19T10:54:01;8.63;;;5.20;;
5945;SDS011;2998;48.206;16.394;2023-01-19T10:56:31;15.53;;;7.43;;
5945;SDS011;2998;48.206;16.394;2023-01-19T10:59:03;12.17;;;7.60;;
5945;SDS011;2998;48.206;16.394;2023-01-19T11:01:34;9.17;;;6.70;;
5945;SDS011;2998;48.206;16.394;2023-01-19T11:04:17;10.60;;;6.70;;
5945;SDS011;2998;48.206;16.394;2023-01-19T11:06:47;11.67;;;6.53;;
5945;SDS011;2998;48.206;16.394;2023-01-19T11:09:15;9.23;;;6.93;;
5945;SDS011;2998;48.206;16.394;2023-01-19T11:11:46;10.63;;;7.40;;
5945;SDS011;2998;48.206;16.394;2023-01-19T11:14:21;19.43;;;7.50;;
5945;SDS011;2998;48.206;16.394;2023-01-19T11:16:52;12.13;;;8.03;;
5945;SDS011;2998;48.206;16.394;2023-01-19T11:19:24;12.23;;;7.37;;
5945;SDS011;2998;48.206;16.394;2023-01-19T11:22:09;10.93;;;8.63;;
5945;SDS011;2998;48.206;16.394;2023-01-19T11:24:47;7.50;;;6.90;;
5945;SDS011;2998;48.206;16.394;2023-01-19T11:27:15;12.67;;;8.37;;
5945;SDS011;2998;48.206;16.394;2023-01-19T11:29:47;7.43;;;6.80;;
5945;SDS011;2998;48.206;16.394;2023-01-19T11:32:20;8.63;;;7.80;;
5945;SDS011;2998;48.206;16.394;2023-01-19T11:34:48;8.80;;;7.23;;
5945;SDS011;2998;48.206;16.394;2023-01-19T11:37:25;11.73;;;8.80;;
5945;SDS011;2998;48.206;16.394;2023-01-19T11:39:55;10.70;;;8.43;;
5945;SDS011;2998;48.206;16.394;2023-01-19T11:42:32;13.53;;;9.00;;
5945;SDS011;2998;48.206;16.394;2023-01-19T11:45:03;18.90;;;9.43;;
5945;SDS011;2998;48.206;16.394;2023-01-19T11:47:37;10.13;;;7.37;;
5945;SDS011;2998;48.206;16.394;2023-01-19T11:50:11;8.27;;;7.47;;
5945;SDS011;2998;48.206;16.394;2023-01-19T11:52:41;6.80;;;6.20;;
5945;SDS011;2998;48.206;16.394;2023-01-19T11:55:15;7.20;;;6.50;;
5945;SDS011;2998;48.206;16.394;2023-01-19T11:57:45;7.33;;;6.73;;
5945;SDS011;2998;48.206;16.394;2023-01-19T12:00:25;8.00;;;7.20;;
5945;SDS011;2998;48.206;16.394;2023-01-19T12:02:59;6.30;;;5.80;;
5945;SDS011;2998;48.206;16.394;2023-01-19T12:05:31;6.00;;;5.60;;
5945;SDS011;2998;48.206;16.394;2023-01-19T12:08:02;6.90;;;6.20;;
5945;SDS011;2998;48.206;16.394;2023-01-19T12:10:34;7.63;;;5.77;;
5945;SDS011;2998;48.206;16.394;2023-01-19T12:13:10;7.83;;;6.60;;
5945;SDS011;2998;48.206;16.394;2023-01-19T12:15:44;9.90;;;6.83;;
5945;SDS011;2998;48.206;16.394;2023-01-19T12:18:18;10.97;;;6.40;;
5945;SDS011;2998;48.206;16.394;2023-01-19T12:20:49;7.37;;;6.53;;
5945;SDS011;2998;48.206;16.394;2023-01-19T12:23:23;5.80;;;5.30;;
5945;SDS011;2998;48.206;16.394;2023-01-19T12:26:02;5.80;;;5.30;;
5945;SDS011;2998;48.206;16.394;2023-01-19T12:28:38;7.30;;;6.33;;
5945;SDS011;2998;48.206;16.394;2023-01-19T12:31:08;8.23;;;5.90;;
5945;SDS011;2998;48.206;16.394;2023-01-19T12:33:38;11.13;;;7.30;;
5945;SDS011;2998;48.206;16.394;2023-01-19T12:36:08;14.83;;;6.53;;
5945;SDS011;2998;48.206;16.394;2023-01-19T12:38:42;18.20;;;6.00;;
5945;SDS011;2998;48.206;16.394;2023-01-19T12:41:21;7.10;;;5.50;;
5945;SDS011;2998;48.206;16.394;2023-01-19T12:46:54;9.73;;;6.70;;
5945;SDS011;2998;48.206;16.394;2023-01-19T12:49:31;9.50;;;7.03;;
5945;SDS011;2998;48.206;16.394;2023-01-19T12:54:53;6.60;;;5.90;;
5945;SDS011;2998;48.206;16.394;2023-01-19T12:57:26;7.63;;;6.27;;
5945;SDS011;2998;48.206;16.394;2023-01-19T12:59:58;7.17;;;6.00;;
5945;SDS011;2998;48.206;16.394;2023-01-19T13:05:24;11.63;;;6.53;;
5945;SDS011;2998;48.206;16.394;2023-01-19T13:08:23;8.93;;;6.70;;
5945;SDS011;2998;48.206;16.394;2023-01-19T13:20:00;10.80;;;8.30;;
5945;SDS011;2998;48.206;16.394;2023-01-19T13:22:49;13.23;;;7.67;;
5945;SDS011;2998;48.206;16.394;2023-01-19T13:25:50;10.93;;;6.83;;
5945;SDS011;2998;48.206;16.394;2023-01-19T13:28:22;10.53;;;7.83;;
5945;SDS011;2998;48.206;16.394;2023-01-19T13:30:57;18.93;;;9.90;;
5945;SDS011;2998;48.206;16.394;2023-01-19T13:33:30;12.67;;;7.70;;
5945;SDS011;2998;48.206;16.394;2023-01-19T13:36:11;13.53;;;8.87;;
5945;SDS011;2998;48.206;16.394;2023-01-19T13:38:47;17.87;;;9.33;;
5945;SDS011;2998;48.206;16.394;2023-01-19T13:41:19;9.27;;;7.50;;
5945;SDS011;2998;48.206;16.394;2023-01-19T13:43:53;12.17;;;7.50;;
5945;SDS011;2998;48.206;16.394;2023-01-19T13:46:23;9.57;;;6.40;;
5945;SDS011;2998;48.206;16.394;2023-01-19T13:48:56;9.30;;;7.70;;
5945;SDS011;2998;48.206;16.394;2023-01-19T13:51:26;9.20;;;7.70;;
5945;SDS011;2998;48.206;16.394;2023-01-19T13:53:56;11.83;;;9.03;;
5945;SDS011;2998;48.206;16.394;2023-01-19T13:56:26;7.77;;;6.40;;
5945;SDS011;2998;48.206;16.394;2023-01-19T13:59:03;11.57;;;7.20;;
5945;SDS011;2998;48.206;16.394;2023-01-19T14:01:36;10.53;;;7.40;;
5945;SDS011;2998;48.206;16.394;2023-01-19T14:04:24;31.17;;;7.10;;
5945;SDS011;2998;48.206;16.394;2023-01-19T14:06:53;8.33;;;7.53;;
5945;SDS011;2998;48.206;16.394;2023-01-19T14:09:25;7.20;;;6.40;;
5945;SDS011;2998;48.206;16.394;2023-01-19T14:12:05;17.33;;;7.83;;
5945;SDS011;2998;48.206;16.394;2023-01-19T14:14:37;8.50;;;6.90;;
5945;SDS011;2998;48.206;16.394;2023-01-19T14:17:23;8.70;;;6.97;;
5945;SDS011;2998;48.206;16.394;2023-01-19T14:19:52;12.30;;;8.47;;
5945;SDS011;2998;48.206;16.394;2023-01-19T14:22:23;14.13;;;8.40;;
5945;SDS011;2998;48.206;16.394;2023-01-19T14:31:01;7.77;;;6.70;;
5945;SDS011;2998;48.206;16.394;2023-01-19T14:33:32;8.80;;;6.87;;
5945;SDS011;2998;48.206;16.394;2023-01-19T14:36:17;11.10;;;7.80;;
5945;SDS011;2998;48.206;16.394;2023-01-19T14:39:02;16.00;;;8.27;;
5945;SDS011;2998;48.206;16.394;2023-01-19T14:41:34;16.43;;;8.23;;
5945;SDS011;2998;48.206;16.394;2023-01-19T14:44:06;13.70;;;8.37;;
5945;SDS011;2998;48.206;16.394;2023-01-19T14:46:35;8.70;;;7.70;;
5945;SDS011;2998;48.206;16.394;2023-01-19T14:49:03;14.83;;;8.43;;
5945;SDS011;2998;48.206;16.394;2023-01-19T14:51:32;12.57;;;7.30;;
5945;SDS011;2998;48.206;16.394;2023-01-19T14:54:00;9.40;;;7.40;;
5945;SDS011;2998;48.206;16.394;2023-01-19T14:56:30;11.13;;;8.13;;
5945;SDS011;2998;48.206;16.394;2023-01-19T14:59:01;10.23;;;6.67;;
5945;SDS011;2998;48.206;16.394;2023-01-19T15:01:31;11.40;;;7.60;;
5945;SDS011;2998;48.206;16.394;2023-01-19T15:04:00;11.53;;;8.23;;
5945;SDS011;2998;48.206;16.394;2023-01-19T15:06:27;9.77;;;7.77;;
5945;SDS011;2998;48.206;16.394;2023-01-19T15:08:55;15.70;;;10.57;;
5945;SDS011;2998;48.206;16.394;2023-01-19T15:11:27;15.77;;;11.27;;
5945;SDS011;2998;48.206;16.394;2023-01-19T15:13:59;8.73;;;7.73;;
5945;SDS011;2998;48.206;16.394;2023-01-19T15:16:28;9.20;;;8.27;;
5945;SDS011;2998;48.206;16.394;2023-01-19T15:18:56;13.47;;;8.70;;
5945;SDS011;2998;48.206;16.394;2023-01-19T15:21:24;8.67;;;7.20;;
5945;SDS011;2998;48.206;16.394;2023-01-19T15:23:54;11.40;;;8.20;;
5945;SDS011;2998;48.206;16.394;2023-01-19T15:26:24;9.87;;;8.37;;
5945;SDS011;2998;48.206;16.394;2023-01-19T15:28:54;9.67;;;7.57;;
5945;SDS011;2998;48.206;16.394;2023-01-19T15:31:25;8.67;;;7.80;;
5945;SDS011;2998;48.206;16.394;2023-01-19T15:33:53;12.20;;;8.77;;
5945;SDS011;2998;48.206;16.394;2023-01-19T15:36:21;8.43;;;6.70;;
5945;SDS011;2998;48.206;16.394;2023-01-19T15:38:50;8.40;;;7.50;;
5945;SDS011;2998;48.206;16.394;2023-01-19T15:41:20;8.63;;;7.63;;
5945;SDS011;2998;48.206;16.394;2023-01-19T15:43:50;9.87;;;7.73;;